sensor_id;sensor_type;location;lat;lon;timestamp;P1;durP1;ratioP1;P2;durP2;ratioP2
59986;SDS011;46181;51.498;5.392;2023-08-17T00:03:48;4.848001;;;1.904;;
59986;SDS011;46181;51.498;5.392;2023-08-17T00:08:18;4.688;;;2.076;;
59986;SDS011;46181;51.498;5.392;2023-08-17T00:12:47;4.668001;;;2.092;;
59986;SDS011;46181;51.498;5.392;2023-08-17T00:17:18;3.488;;;1.8;;
59986;SDS011;46181;51.498;5.392;2023-08-17T00:21:47;4.384001;;;1.98;;
59986;SDS011;46181;51.498;5.392;2023-08-17T00:26:18;3.364;;;1.908;;
59986;SDS011;46181;51.498;5.392;2023-08-17T00:30:48;4.275999;;;2.076;;
59986;SDS011;46181;51.498;5.392;2023-08-17T00:35:18;4.708;;;2.204;;
59986;SDS011;46181;51.498;5.392;2023-08-17T00:39:47;4.456001;;;2.14;;
59986;SDS011;46181;51.498;5.392;2023-08-17T00:44:18;4.908001;;;2.319999;;
59986;SDS011;46181;51.498;5.392;2023-08-17T00:48:48;4.56;;;1.94;;
59986;SDS011;46181;51.498;5.392;2023-08-17T00:53:18;7.208001;;;2.492;;
59986;SDS011;46181;51.498;5.392;2023-08-17T00:57:48;4.9;;;2.324;;
59986;SDS011;46181;51.498;5.392;2023-08-17T01:02:18;4.840001;;;2.176;;
59986;SDS011;46181;51.498;5.392;2023-08-17T01:06:48;5.303999;;;2.152;;
59986;SDS011;46181;51.498;5.392;2023-08-17T01:11:20;4.652001;;;2.516;;
59986;SDS011;46181;51.498;5.392;2023-08-17T01:15:49;3.716;;;2.008;;
59986;SDS011;46181;51.498;5.392;2023-08-17T01:20:17;5.944;;;1.94;;
59986;SDS011;46181;51.498;5.392;2023-08-17T01:24:48;3.536;;;1.74;;
59986;SDS011;46181;51.498;5.392;2023-08-17T01:29:18;4.172001;;;1.856;;
59986;SDS011;46181;51.498;5.392;2023-08-17T01:33:49;6.875999;;;2.24;;
59986;SDS011;46181;51.498;5.392;2023-08-17T01:38:18;4.472;;;1.908;;
59986;SDS011;46181;51.498;5.392;2023-08-17T01:42:47;7.676001;;;2.34;;
59986;SDS011;46181;51.498;5.392;2023-08-17T01:47:18;4.108;;;2.104;;
59986;SDS011;46181;51.498;5.392;2023-08-17T01:51:48;4.712;;;2.124;;
59986;SDS011;46181;51.498;5.392;2023-08-17T01:56:18;5.456;;;2.127999;;
59986;SDS011;46181;51.498;5.392;2023-08-17T02:00:48;5.844;;;2.364;;
59986;SDS011;46181;51.498;5.392;2023-08-17T02:05:18;4.624;;;2.116;;
59986;SDS011;46181;51.498;5.392;2023-08-17T02:09:48;4.496;;;2.172;;
59986;SDS011;46181;51.498;5.392;2023-08-17T02:14:18;3.852;;;2.56;;
59986;SDS011;46181;51.498;5.392;2023-08-17T02:18:48;5.236001;;;2.424;;
59986;SDS011;46181;51.498;5.392;2023-08-17T02:23:18;5.196;;;2.388;;
59986;SDS011;46181;51.498;5.392;2023-08-17T02:27:48;6.596;;;2.344;;
59986;SDS011;46181;51.498;5.392;2023-08-17T02:32:18;3.108;;;1.98;;
59986;SDS011;46181;51.498;5.392;2023-08-17T02:36:48;4.176;;;2.208;;
59986;SDS011;46181;51.498;5.392;2023-08-17T02:41:18;4.179999;;;1.912;;
59986;SDS011;46181;51.498;5.392;2023-08-17T02:45:48;6.479999;;;2.344;;
59986;SDS011;46181;51.498;5.392;2023-08-17T02:50:18;6.836;;;2.048;;
59986;SDS011;46181;51.498;5.392;2023-08-17T02:54:48;5.964;;;1.92;;
59986;SDS011;46181;51.498;5.392;2023-08-17T02:59:18;3.552;;;1.872;;
59986;SDS011;46181;51.498;5.392;2023-08-17T03:03:48;5.464;;;2.039999;;
59986;SDS011;46181;51.498;5.392;2023-08-17T03:08:18;4.388;;;1.9;;
59986;SDS011;46181;51.498;5.392;2023-08-17T03:12:48;3.912001;;;1.8;;
59986;SDS011;46181;51.498;5.392;2023-08-17T03:17:18;6.372001;;;1.908;;
59986;SDS011;46181;51.498;5.392;2023-08-17T03:21:48;5.215999;;;2.008;;
59986;SDS011;46181;51.498;5.392;2023-08-17T03:26:18;5.672;;;2.099999;;
59986;SDS011;46181;51.498;5.392;2023-08-17T03:30:48;3.468;;;1.708;;
59986;SDS011;46181;51.498;5.392;2023-08-17T03:35:18;4.928;;;2.064;;
59986;SDS011;46181;51.498;5.392;2023-08-17T03:39:48;4.5;;;1.708;;
59986;SDS011;46181;51.498;5.392;2023-08-17T03:44:18;5.496;;;1.956;;
59986;SDS011;46181;51.498;5.392;2023-08-17T03:48:48;4.42;;;2.068;;
59986;SDS011;46181;51.498;5.392;2023-08-17T03:53:18;4.352;;;2.168;;
59986;SDS011;46181;51.498;5.392;2023-08-17T03:57:48;5.328;;;2.04;;
59986;SDS011;46181;51.498;5.392;2023-08-17T04:02:18;4.276;;;1.972;;
59986;SDS011;46181;51.498;5.392;2023-08-17T04:06:48;3.34;;;1.995999;;
59986;SDS011;46181;51.498;5.392;2023-08-17T04:11:18;5.656;;;2.204;;
59986;SDS011;46181;51.498;5.392;2023-08-17T04:15:48;5.212001;;;2.304;;
59986;SDS011;46181;51.498;5.392;2023-08-17T04:20:18;5.148001;;;2.14;;
59986;SDS011;46181;51.498;5.392;2023-08-17T04:24:48;5.52;;;2.424001;;
59986;SDS011;46181;51.498;5.392;2023-08-17T04:29:18;4.864001;;;2.296;;
59986;SDS011;46181;51.498;5.392;2023-08-17T04:33:48;4.848;;;2.284;;
59986;SDS011;46181;51.498;5.392;2023-08-17T04:38:18;5.968;;;2.244;;
59986;SDS011;46181;51.498;5.392;2023-08-17T04:42:48;5.42;;;2.196;;
59986;SDS011;46181;51.498;5.392;2023-08-17T04:47:18;4.972;;;2.088;;
59986;SDS011;46181;51.498;5.392;2023-08-17T04:51:48;6.24;;;2.28;;
59986;SDS011;46181;51.498;5.392;2023-08-17T04:56:18;4.9;;;2.016;;
59986;SDS011;46181;51.498;5.392;2023-08-17T05:00:48;4.328;;;2.316;;
59986;SDS011;46181;51.498;5.392;2023-08-17T05:05:18;6.044;;;2.028;;
59986;SDS011;46181;51.498;5.392;2023-08-17T05:09:48;5.456;;;2.288;;
59986;SDS011;46181;51.498;5.392;2023-08-17T05:14:18;6.548;;;2.216;;
59986;SDS011;46181;51.498;5.392;2023-08-17T05:18:48;3.856;;;2.016;;
59986;SDS011;46181;51.498;5.392;2023-08-17T05:23:18;5.520001;;;2.220001;;
59986;SDS011;46181;51.498;5.392;2023-08-17T05:27:48;5.14;;;2.1;;
59986;SDS011;46181;51.498;5.392;2023-08-17T05:32:18;4.564001;;;2.236;;
59986;SDS011;46181;51.498;5.392;2023-08-17T05:36:48;6.828001;;;2.208;;
59986;SDS011;46181;51.498;5.392;2023-08-17T05:41:18;4.868;;;2.216;;
59986;SDS011;46181;51.498;5.392;2023-08-17T05:45:48;6.067999;;;2.324;;
59986;SDS011;46181;51.498;5.392;2023-08-17T05:50:18;4.948;;;2.224;;
59986;SDS011;46181;51.498;5.392;2023-08-17T05:54:48;5.1;;;2.436;;
59986;SDS011;46181;51.498;5.392;2023-08-17T05:59:18;7.344001;;;2.532;;
59986;SDS011;46181;51.498;5.392;2023-08-17T06:03:48;4.752;;;2.52;;
59986;SDS011;46181;51.498;5.392;2023-08-17T06:08:18;4.916001;;;2.688;;
59986;SDS011;46181;51.498;5.392;2023-08-17T06:12:48;3.856;;;2.148;;
59986;SDS011;46181;51.498;5.392;2023-08-17T06:17:18;6.424;;;2.616;;
59986;SDS011;46181;51.498;5.392;2023-08-17T06:21:48;4.492;;;2.308;;
59986;SDS011;46181;51.498;5.392;2023-08-17T06:26:18;5.12;;;2.484;;
59986;SDS011;46181;51.498;5.392;2023-08-17T06:30:48;6.195999;;;2.768;;
59986;SDS011;46181;51.498;5.392;2023-08-17T06:35:18;6.144;;;3.188;;
59986;SDS011;46181;51.498;5.392;2023-08-17T06:39:48;6.188001;;;3.036;;
59986;SDS011;46181;51.498;5.392;2023-08-17T06:44:18;5.948;;;2.704001;;
59986;SDS011;46181;51.498;5.392;2023-08-17T06:48:48;10.356;;;4.671999;;
59986;SDS011;46181;51.498;5.392;2023-08-17T06:53:18;4.876001;;;2.932;;
59986;SDS011;46181;51.498;5.392;2023-08-17T06:57:48;6.123999;;;2.86;;
59986;SDS011;46181;51.498;5.392;2023-08-17T07:02:19;6.724;;;3.364001;;
59986;SDS011;46181;51.498;5.392;2023-08-17T07:06:48;5.791999;;;3.159999;;
59986;SDS011;46181;51.498;5.392;2023-08-17T07:11:18;5.820001;;;3.111999;;
59986;SDS011;46181;51.498;5.392;2023-08-17T07:15:48;5.575999;;;3.024;;
59986;SDS011;46181;51.498;5.392;2023-08-17T07:20:18;6.743999;;;3.220001;;
59986;SDS011;46181;51.498;5.392;2023-08-17T07:24:48;9.084001;;;3.228001;;
59986;SDS011;46181;51.498;5.392;2023-08-17T07:29:18;7.236;;;3.204;;
59986;SDS011;46181;51.498;5.392;2023-08-17T07:33:48;7.759998;;;3.248;;
59986;SDS011;46181;51.498;5.392;2023-08-17T07:38:18;5.567999;;;2.988;;
59986;SDS011;46181;51.498;5.392;2023-08-17T07:42:49;8.623999;;;3.24;;
59986;SDS011;46181;51.498;5.392;2023-08-17T07:47:18;7.744;;;3.352;;
59986;SDS011;46181;51.498;5.392;2023-08-17T07:51:48;7.076;;;3.039999;;
59986;SDS011;46181;51.498;5.392;2023-08-17T07:56:18;6.772001;;;3.276;;
59986;SDS011;46181;51.498;5.392;2023-08-17T08:00:48;6.5;;;3.156;;
59986;SDS011;46181;51.498;5.392;2023-08-17T08:05:18;5.932;;;2.964;;
59986;SDS011;46181;51.498;5.392;2023-08-17T08:09:48;5.332001;;;2.884;;
59986;SDS011;46181;51.498;5.392;2023-08-17T08:14:18;6.211999;;;3.02;;
59986;SDS011;46181;51.498;5.392;2023-08-17T08:18:48;6.732001;;;3.264001;;
59986;SDS011;46181;51.498;5.392;2023-08-17T08:23:18;7.664001;;;3.228;;
59986;SDS011;46181;51.498;5.392;2023-08-17T08:27:48;8.096;;;3.844001;;
59986;SDS011;46181;51.498;5.392;2023-08-17T08:32:18;7.444;;;3.552;;
59986;SDS011;46181;51.498;5.392;2023-08-17T08:36:48;7.412;;;3.488;;
59986;SDS011;46181;51.498;5.392;2023-08-17T08:41:18;7.052;;;3.404;;
59986;SDS011;46181;51.498;5.392;2023-08-17T08:45:48;5.535999;;;3.316;;
59986;SDS011;46181;51.498;5.392;2023-08-17T08:50:19;7.544;;;3.532;;
59986;SDS011;46181;51.498;5.392;2023-08-17T08:54:49;7.244001;;;3.656;;
59986;SDS011;46181;51.498;5.392;2023-08-17T08:59:18;7.24;;;3.556;;
59986;SDS011;46181;51.498;5.392;2023-08-17T09:03:48;6.800001;;;3.599999;;
59986;SDS011;46181;51.498;5.392;2023-08-17T09:08:20;7.420001;;;3.743999;;
59986;SDS011;46181;51.498;5.392;2023-08-17T09:12:49;8.8;;;3.936001;;
59986;SDS011;46181;51.498;5.392;2023-08-17T09:17:20;8.132001;;;3.632;;
59986;SDS011;46181;51.498;5.392;2023-08-17T09:21:48;7.012001;;;4.316001;;
59986;SDS011;46181;51.498;5.392;2023-08-17T09:26:18;8.048001;;;4.444;;
59986;SDS011;46181;51.498;5.392;2023-08-17T09:30:55;8.404001;;;4.52;;
59986;SDS011;46181;51.498;5.392;2023-08-17T09:35:18;10.728;;;4.627999;;
59986;SDS011;46181;51.498;5.392;2023-08-17T09:39:48;8.664001;;;4.671999;;
59986;SDS011;46181;51.498;5.392;2023-08-17T09:44:18;9.152;;;4.876001;;
59986;SDS011;46181;51.498;5.392;2023-08-17T09:48:48;12.112;;;5.412;;
59986;SDS011;46181;51.498;5.392;2023-08-17T09:53:18;9.887998;;;5.059999;;
59986;SDS011;46181;51.498;5.392;2023-08-17T09:57:48;10.092;;;5.316;;
59986;SDS011;46181;51.498;5.392;2023-08-17T10:02:19;9.732;;;5.784001;;
59986;SDS011;46181;51.498;5.392;2023-08-17T10:06:48;12.652;;;5.884001;;
59986;SDS011;46181;51.498;5.392;2023-08-17T10:11:19;13.184;;;5.627999;;
59986;SDS011;46181;51.498;5.392;2023-08-17T10:15:49;12.528;;;6.536;;
59986;SDS011;46181;51.498;5.392;2023-08-17T10:20:18;12.012;;;6.004;;
59986;SDS011;46181;51.498;5.392;2023-08-17T10:24:48;13.652;;;6.211998;;
59986;SDS011;46181;51.498;5.392;2023-08-17T10:29:18;11.988;;;6.519999;;
59986;SDS011;46181;51.498;5.392;2023-08-17T10:33:48;10.652;;;6.163999;;
59986;SDS011;46181;51.498;5.392;2023-08-17T10:38:18;12.56;;;6.624;;
59986;SDS011;46181;51.498;5.392;2023-08-17T10:42:48;11.432;;;6.119999;;
59986;SDS011;46181;51.498;5.392;2023-08-17T10:47:25;12.888;;;6.679999;;
59986;SDS011;46181;51.498;5.392;2023-08-17T10:51:55;10.52;;;6.159998;;
59986;SDS011;46181;51.498;5.392;2023-08-17T10:56:18;12.412;;;6.635999;;
59986;SDS011;46181;51.498;5.392;2023-08-17T11:00:48;12.164;;;6.396;;
59986;SDS011;46181;51.498;5.392;2023-08-17T11:05:21;12.696;;;6.456;;
59986;SDS011;46181;51.498;5.392;2023-08-17T11:09:48;11.812;;;6.392;;
59986;SDS011;46181;51.498;5.392;2023-08-17T11:14:18;13.088;;;7.02;;
59986;SDS011;46181;51.498;5.392;2023-08-17T11:18:48;14.116;;;6.667999;;
59986;SDS011;46181;51.498;5.392;2023-08-17T11:23:19;12.344;;;6.828001;;
59986;SDS011;46181;51.498;5.392;2023-08-17T11:27:48;13.156;;;7.155999;;
59986;SDS011;46181;51.498;5.392;2023-08-17T11:32:19;11.38;;;6.776001;;
59986;SDS011;46181;51.498;5.392;2023-08-17T11:36:48;13.144;;;7.444001;;
59986;SDS011;46181;51.498;5.392;2023-08-17T11:41:18;13.704;;;7.584;;
59986;SDS011;46181;51.498;5.392;2023-08-17T11:45:48;12.148;;;6.996;;
59986;SDS011;46181;51.498;5.392;2023-08-17T11:50:18;13.956;;;7.356;;
59986;SDS011;46181;51.498;5.392;2023-08-17T11:54:48;13.312;;;7.028;;
59986;SDS011;46181;51.498;5.392;2023-08-17T11:59:18;12.736;;;7.776;;
59986;SDS011;46181;51.498;5.392;2023-08-17T12:03:48;11.212;;;7.488;;
59986;SDS011;46181;51.498;5.392;2023-08-17T12:08:18;12.836;;;7.352;;
59986;SDS011;46181;51.498;5.392;2023-08-17T12:12:48;12.252;;;7.368001;;
59986;SDS011;46181;51.498;5.392;2023-08-17T12:17:18;11.764;;;6.956001;;
59986;SDS011;46181;51.498;5.392;2023-08-17T12:21:48;12.088;;;7.416;;
59986;SDS011;46181;51.498;5.392;2023-08-17T12:26:21;13.016;;;7.608001;;
59986;SDS011;46181;51.498;5.392;2023-08-17T12:30:55;12.46;;;7.532;;
59986;SDS011;46181;51.498;5.392;2023-08-17T12:35:18;13.2;;;7.704;;
59986;SDS011;46181;51.498;5.392;2023-08-17T12:39:48;11.804;;;7.732;;
59986;SDS011;46181;51.498;5.392;2023-08-17T12:44:18;14.46;;;8.535999;;
59986;SDS011;46181;51.498;5.392;2023-08-17T12:48:48;14.76;;;8.448001;;
59986;SDS011;46181;51.498;5.392;2023-08-17T12:53:18;13.236;;;8.363999;;
59986;SDS011;46181;51.498;5.392;2023-08-17T12:57:48;11.868;;;7.736;;
59986;SDS011;46181;51.498;5.392;2023-08-17T13:02:19;11.94;;;7.920001;;
59986;SDS011;46181;51.498;5.392;2023-08-17T13:06:48;10.868;;;7.504;;
59986;SDS011;46181;51.498;5.392;2023-08-17T13:11:18;11.648;;;8.492002;;
59986;SDS011;46181;51.498;5.392;2023-08-17T13:15:48;12.66;;;8.396;;
59986;SDS011;46181;51.498;5.392;2023-08-17T13:20:18;12.908;;;8.388001;;
59986;SDS011;46181;51.498;5.392;2023-08-17T13:24:48;14.732;;;10.248;;
59986;SDS011;46181;51.498;5.392;2023-08-17T13:29:18;12.888;;;8.844;;
59986;SDS011;46181;51.498;5.392;2023-08-17T13:33:48;12.44;;;8.884002;;
59986;SDS011;46181;51.498;5.392;2023-08-17T13:38:18;13.324;;;9.156;;
59986;SDS011;46181;51.498;5.392;2023-08-17T13:42:48;11.78;;;8.568;;
59986;SDS011;46181;51.498;5.392;2023-08-17T13:47:18;13.72;;;9.099998;;
59986;SDS011;46181;51.498;5.392;2023-08-17T13:51:48;11.756;;;8.663999;;
59986;SDS011;46181;51.498;5.392;2023-08-17T13:56:18;12.708;;;8.84;;
59986;SDS011;46181;51.498;5.392;2023-08-17T14:00:48;13.32;;;9.028001;;
59986;SDS011;46181;51.498;5.392;2023-08-17T14:05:18;14.4;;;9.064;;
59986;SDS011;46181;51.498;5.392;2023-08-17T14:09:48;13.244;;;8.836;;
59986;SDS011;46181;51.498;5.392;2023-08-17T14:14:18;14.052;;;9.016001;;
59986;SDS011;46181;51.498;5.392;2023-08-17T14:18:48;14.044;;;8.992001;;
59986;SDS011;46181;51.498;5.392;2023-08-17T14:23:18;13.36;;;9.379999;;
59986;SDS011;46181;51.498;5.392;2023-08-17T14:27:48;13.644;;;9.452;;
59986;SDS011;46181;51.498;5.392;2023-08-17T14:32:18;11.912;;;9.696;;
59986;SDS011;46181;51.498;5.392;2023-08-17T14:36:48;15.688;;;10.424;;
59986;SDS011;46181;51.498;5.392;2023-08-17T14:41:18;14.36;;;9.875999;;
59986;SDS011;46181;51.498;5.392;2023-08-17T14:45:48;13.18;;;9.528;;
59986;SDS011;46181;51.498;5.392;2023-08-17T14:50:18;13.956;;;9.580002;;
59986;SDS011;46181;51.498;5.392;2023-08-17T14:54:48;14.828;;;9.636;;
59986;SDS011;46181;51.498;5.392;2023-08-17T14:59:18;14.332;;;9.563999;;
59986;SDS011;46181;51.498;5.392;2023-08-17T15:03:48;15.628;;;10.676;;
59986;SDS011;46181;51.498;5.392;2023-08-17T15:08:18;14.964;;;10.26;;
59986;SDS011;46181;51.498;5.392;2023-08-17T15:12:48;13.752;;;9.952;;
59986;SDS011;46181;51.498;5.392;2023-08-17T15:17:18;14.38;;;9.700001;;
59986;SDS011;46181;51.498;5.392;2023-08-17T15:21:48;15.58;;;10.216;;
59986;SDS011;46181;51.498;5.392;2023-08-17T15:26:18;16.408;;;10.12;;
59986;SDS011;46181;51.498;5.392;2023-08-17T15:30:49;14.344;;;9.708;;
59986;SDS011;46181;51.498;5.392;2023-08-17T15:35:18;14.812;;;10.58;;
59986;SDS011;46181;51.498;5.392;2023-08-17T15:39:48;14.372;;;10.12;;
59986;SDS011;46181;51.498;5.392;2023-08-17T15:44:18;15.22;;;10.64;;
59986;SDS011;46181;51.498;5.392;2023-08-17T15:48:48;13.616;;;10.088;;
59986;SDS011;46181;51.498;5.392;2023-08-17T15:53:18;13.648;;;10.22;;
59986;SDS011;46181;51.498;5.392;2023-08-17T15:57:48;15.62;;;10.156;;
59986;SDS011;46181;51.498;5.392;2023-08-17T16:02:18;15.18;;;10.284;;
59986;SDS011;46181;51.498;5.392;2023-08-17T16:06:48;13.708;;;9.723999;;
59986;SDS011;46181;51.498;5.392;2023-08-17T16:11:18;13.496;;;9.699999;;
59986;SDS011;46181;51.498;5.392;2023-08-17T16:15:48;16.092;;;10.3;;
59986;SDS011;46181;51.498;5.392;2023-08-17T16:20:18;15.22;;;10.208;;
59986;SDS011;46181;51.498;5.392;2023-08-17T16:24:48;16.504;;;10.16;;
59986;SDS011;46181;51.498;5.392;2023-08-17T16:29:18;15.412;;;9.956001;;
59986;SDS011;46181;51.498;5.392;2023-08-17T16:33:48;15.168;;;10.392;;
59986;SDS011;46181;51.498;5.392;2023-08-17T16:38:18;14.144;;;10.508;;
59986;SDS011;46181;51.498;5.392;2023-08-17T16:42:48;14.356;;;10.364;;
59986;SDS011;46181;51.498;5.392;2023-08-17T16:47:18;14.6;;;10.884;;
59986;SDS011;46181;51.498;5.392;2023-08-17T16:51:48;13.208;;;10.288;;
59986;SDS011;46181;51.498;5.392;2023-08-17T16:56:19;14.528;;;10.6;;
59986;SDS011;46181;51.498;5.392;2023-08-17T17:00:48;14.524;;;9.992001;;
59986;SDS011;46181;51.498;5.392;2023-08-17T17:05:18;12.8;;;9.712;;
59986;SDS011;46181;51.498;5.392;2023-08-17T17:09:48;14.168;;;9.584002;;
59986;SDS011;46181;51.498;5.392;2023-08-17T17:14:18;13.94;;;10.004;;
59986;SDS011;46181;51.498;5.392;2023-08-17T17:18:48;14.324;;;10.3;;
59986;SDS011;46181;51.498;5.392;2023-08-17T17:23:18;14.292;;;10.368;;
59986;SDS011;46181;51.498;5.392;2023-08-17T17:27:48;16.808;;;10.396;;
59986;SDS011;46181;51.498;5.392;2023-08-17T17:32:18;16.948;;;11.032;;
59986;SDS011;46181;51.498;5.392;2023-08-17T17:36:48;15.036;;;10.46;;
59986;SDS011;46181;51.498;5.392;2023-08-17T17:41:19;14.876;;;10.984;;
59986;SDS011;46181;51.498;5.392;2023-08-17T17:45:48;13.604;;;10.98;;
59986;SDS011;46181;51.498;5.392;2023-08-17T17:50:18;15.452;;;10.728;;
59986;SDS011;46181;51.498;5.392;2023-08-17T17:54:48;14.284;;;10.844;;
59986;SDS011;46181;51.498;5.392;2023-08-17T17:59:18;14.28;;;10.284;;
59986;SDS011;46181;51.498;5.392;2023-08-17T18:03:48;13.052;;;10.26;;
59986;SDS011;46181;51.498;5.392;2023-08-17T18:08:18;16.024;;;10.936;;
59986;SDS011;46181;51.498;5.392;2023-08-17T18:12:48;14.308;;;10.412;;
59986;SDS011;46181;51.498;5.392;2023-08-17T18:17:18;15.652;;;10.776;;
59986;SDS011;46181;51.498;5.392;2023-08-17T18:21:48;14.24;;;10.148;;
59986;SDS011;46181;51.498;5.392;2023-08-17T18:26:18;16.132;;;9.98;;
59986;SDS011;46181;51.498;5.392;2023-08-17T18:30:48;13.144;;;10.012;;
59986;SDS011;46181;51.498;5.392;2023-08-17T18:35:18;13.64;;;9.899999;;
59986;SDS011;46181;51.498;5.392;2023-08-17T18:39:48;15.412;;;9.624;;
59986;SDS011;46181;51.498;5.392;2023-08-17T18:44:18;13.676;;;9.627998;;
59986;SDS011;46181;51.498;5.392;2023-08-17T18:48:49;13.828;;;9.963998;;
59986;SDS011;46181;51.498;5.392;2023-08-17T18:53:18;13.216;;;10.492;;
59986;SDS011;46181;51.498;5.392;2023-08-17T18:57:49;13.036;;;10.228;;
59986;SDS011;46181;51.498;5.392;2023-08-17T19:02:18;14.568;;;9.588001;;
59986;SDS011;46181;51.498;5.392;2023-08-17T19:06:48;12.28;;;9.628;;
59986;SDS011;46181;51.498;5.392;2023-08-17T19:11:18;13.732;;;9.316;;
59986;SDS011;46181;51.498;5.392;2023-08-17T19:15:48;14.828;;;10.384;;
59986;SDS011;46181;51.498;5.392;2023-08-17T19:20:19;14.98;;;10.468;;
59986;SDS011;46181;51.498;5.392;2023-08-17T19:24:48;12.724;;;10.004;;
59986;SDS011;46181;51.498;5.392;2023-08-17T19:29:18;14.36;;;10.58;;
59986;SDS011;46181;51.498;5.392;2023-08-17T19:33:48;13.94;;;10.072;;
59986;SDS011;46181;51.498;5.392;2023-08-17T19:38:18;15.66;;;10.832;;
59986;SDS011;46181;51.498;5.392;2023-08-17T19:42:49;15.492;;;11.116;;
59986;SDS011;46181;51.498;5.392;2023-08-17T19:47:19;14.468;;;10.644;;
59986;SDS011;46181;51.498;5.392;2023-08-17T19:51:49;15.804;;;11.364;;
59986;SDS011;46181;51.498;5.392;2023-08-17T19:56:18;16.336;;;11.54;;
59986;SDS011;46181;51.498;5.392;2023-08-17T20:00:49;16.904;;;11.728;;
59986;SDS011;46181;51.498;5.392;2023-08-17T20:05:18;17.252;;;11.964;;
59986;SDS011;46181;51.498;5.392;2023-08-17T20:09:49;17.016;;;12.54;;
59986;SDS011;46181;51.498;5.392;2023-08-17T20:14:18;16.944;;;12.964;;
59986;SDS011;46181;51.498;5.392;2023-08-17T20:18:48;18.152;;;12.32;;
59986;SDS011;46181;51.498;5.392;2023-08-17T20:23:19;17.936;;;12.868;;
59986;SDS011;46181;51.498;5.392;2023-08-17T20:27:49;18.416;;;13.284;;
59986;SDS011;46181;51.498;5.392;2023-08-17T20:32:19;20.04;;;13.892;;
59986;SDS011;46181;51.498;5.392;2023-08-17T20:36:49;18.728;;;13.052;;
59986;SDS011;46181;51.498;5.392;2023-08-17T20:41:18;16.78;;;13.296;;
59986;SDS011;46181;51.498;5.392;2023-08-17T20:45:48;19.66;;;13.452;;
59986;SDS011;46181;51.498;5.392;2023-08-17T20:50:18;19.236;;;13.584;;
59986;SDS011;46181;51.498;5.392;2023-08-17T20:54:48;19.304;;;13.524;;
59986;SDS011;46181;51.498;5.392;2023-08-17T20:59:19;19.24;;;14.272;;
59986;SDS011;46181;51.498;5.392;2023-08-17T21:03:48;20.288;;;14.468;;
59986;SDS011;46181;51.498;5.392;2023-08-17T21:08:18;22.092;;;14.544;;
59986;SDS011;46181;51.498;5.392;2023-08-17T21:12:48;20.3;;;14.664;;
59986;SDS011;46181;51.498;5.392;2023-08-17T21:17:18;19.2;;;13.756;;
59986;SDS011;46181;51.498;5.392;2023-08-17T21:21:48;19.448;;;14.6;;
59986;SDS011;46181;51.498;5.392;2023-08-17T21:26:18;22.536;;;13.912;;
59986;SDS011;46181;51.498;5.392;2023-08-17T21:30:48;19.812;;;13.92;;
59986;SDS011;46181;51.498;5.392;2023-08-17T21:35:18;19.164;;;13.952;;
59986;SDS011;46181;51.498;5.392;2023-08-17T21:39:48;21.32;;;14.012;;
59986;SDS011;46181;51.498;5.392;2023-08-17T21:44:18;20.796;;;14.172;;
59986;SDS011;46181;51.498;5.392;2023-08-17T21:48:48;18.884;;;14.252;;
59986;SDS011;46181;51.498;5.392;2023-08-17T21:53:19;17.956;;;13.344;;
59986;SDS011;46181;51.498;5.392;2023-08-17T21:57:48;19.492;;;13.148;;
59986;SDS011;46181;51.498;5.392;2023-08-17T22:02:18;17.716;;;13.576;;
59986;SDS011;46181;51.498;5.392;2023-08-17T22:06:48;17.048;;;13.076;;
59986;SDS011;46181;51.498;5.392;2023-08-17T22:11:18;16.4;;;12.228;;
59986;SDS011;46181;51.498;5.392;2023-08-17T22:15:48;15.664;;;12.116;;
59986;SDS011;46181;51.498;5.392;2023-08-17T22:20:19;16.584;;;11.664;;
59986;SDS011;46181;51.498;5.392;2023-08-17T22:24:48;16.724;;;11.056;;
59986;SDS011;46181;51.498;5.392;2023-08-17T22:29:18;16.432;;;11.22;;
59986;SDS011;46181;51.498;5.392;2023-08-17T22:33:48;14.824;;;11.5;;
59986;SDS011;46181;51.498;5.392;2023-08-17T22:38:18;15.248;;;11.632;;
59986;SDS011;46181;51.498;5.392;2023-08-17T22:42:48;16.864;;;11.636;;
59986;SDS011;46181;51.498;5.392;2023-08-17T22:47:18;20.92;;;16.036;;
59986;SDS011;46181;51.498;5.392;2023-08-17T22:51:48;14.356;;;11;;
59986;SDS011;46181;51.498;5.392;2023-08-17T22:56:18;16.452;;;11.732;;
59986;SDS011;46181;51.498;5.392;2023-08-17T23:00:48;15.972;;;11.088;;
59986;SDS011;46181;51.498;5.392;2023-08-17T23:05:19;16.272;;;11.428;;
59986;SDS011;46181;51.498;5.392;2023-08-17T23:09:48;16.344;;;11.472;;
59986;SDS011;46181;51.498;5.392;2023-08-17T23:14:18;13.356;;;10.7;;
59986;SDS011;46181;51.498;5.392;2023-08-17T23:18:49;14.152;;;10.32;;
59986;SDS011;46181;51.498;5.392;2023-08-17T23:23:18;12.728;;;9.203999;;
59986;SDS011;46181;51.498;5.392;2023-08-17T23:27:48;11.412;;;9.095999;;
59986;SDS011;46181;51.498;5.392;2023-08-17T23:32:18;13.1;;;9.124001;;
59986;SDS011;46181;51.498;5.392;2023-08-17T23:36:49;13.724;;;9.096001;;
59986;SDS011;46181;51.498;5.392;2023-08-17T23:41:19;12.944;;;9.16;;
59986;SDS011;46181;51.498;5.392;2023-08-17T23:45:49;13.352;;;9.051999;;
59986;SDS011;46181;51.498;5.392;2023-08-17T23:50:19;13.268;;;9.172;;
59986;SDS011;46181;51.498;5.392;2023-08-17T23:54:48;13.672;;;9.224;;
59986;SDS011;46181;51.498;5.392;2023-08-17T23:59:19;11.976;;;8.756;;
